Decoded Metar for KRME (ROME in NY, USA) (IATA:RME) | Meteo·Mobile Aviation Weather
aviador You're here:

KRME Decoded Metar

ROME in NY, USA
Report Time2018-10-23 22:30:00
UTC Time2018-10-23 22:37:01
Flight Rules mvfr MVFR
Wind300° at 06 kt
W.Decomp.*RWY 33: 5.7 kt HW 1.8 kt LCW
W.Rank300° ranks 7
Current wind is below 300° avg. (9.1)
Visibility8047 m
Phenomena:Light Rain
Mist
Clouds:Few 008 Hf
Broken 030 Hf
Overcast 040 Hf
Ceiling3,000 ft
Temp07°C (ISA -7)
Dew Point07°C (100% RH)
AAT4.1°C
QNH1015 hPa
Density Alt-266 ft
Elevation505 ft
Report Wrong Elevation
Raw Report
KRME 232230Z 30006KT 5SM -RA BR FEW008 BKN030 OVC040 07/07 A2996
RMK AO2 RAB2158 P0004 T00720067=

Extra information for KRME:More info

Metar Taf Metar & Taf Last 4 Metars F.Rules Stats Wind Profile Meteogram Temp Stats Airport Information Weather charts Add Link Nearby VenuesMetar ALERT Operation Metar Decoded Social comments

AIRNAV info for KRME